Time;durP1;ratioP1;P1;durP2;ratioP2;P2;SDS_P1;SDS_P2;PMS_P1;PMS_P2;Temp;Humidity;BMP_temperature;BMP_pressure;BME280_temperature;BME280_humidity;BME280_pressure;Samples;Min_cycle;Max_cycle;Signal;HPM_P1;HPM_P2
2022/01/11 00:00:31;;;;;;;104.82;39.70;;;;;;;-2.23;nan;100744.78;5035731;28;20110;-71
2022/01/11 00:02:57;;;;;;;95.05;38.60;;;;;;;-2.28;nan;100744.38;5053633;28;20037;-70
2022/01/11 00:06:17;;;;;;;93.00;38.50;;;;;;;-2.32;nan;100744.78;5051435;28;20889;-71
2022/01/11 00:08:13;;;;;;;91.90;38.00;;;;;;;-2.24;nan;100761.22;5041095;28;20044;-71
2022/01/11 00:10:50;;;;;;;92.43;38.10;;;;;;;-2.21;nan;100767.88;5053571;28;20036;-71
2022/01/11 00:13:18;;;;;;;92.38;37.28;;;;;;;-2.26;nan;100763.13;5053600;28;20029;-71
2022/01/11 00:15:44;;;;;;;93.47;36.30;;;;;;;-2.20;nan;100772.91;5053384;28;20104;-70
2022/01/11 00:18:09;;;;;;;104.07;38.40;;;;;;;-2.22;nan;100777.41;5051921;28;20352;-70
2022/01/11 00:20:37;;;;;;;98.43;38.50;;;;;;;-2.21;nan;100781.59;5053534;28;20032;-71
2022/01/11 00:25:37;;;;;;;102.65;39.33;;;;;;;-2.22;nan;100790.28;5053085;28;20063;-70
2022/01/11 00:28:04;;;;;;;96.45;36.67;;;;;;;-2.28;nan;100785.66;5053168;28;20041;-70
2022/01/11 00:30:33;;;;;;;102.55;38.80;;;;;;;-2.25;nan;100790.56;5053257;28;20033;-70
2022/01/11 00:33:02;;;;;;;99.50;38.67;;;;;;;-2.22;nan;100792.88;5053054;28;20048;-70
2022/01/11 00:35:38;;;;;;;100.73;39.93;;;;;;;-2.30;nan;100782.38;5052850;28;20032;-71
2022/01/11 00:38:05;;;;;;;97.97;38.03;;;;;;;-2.21;nan;100798.84;5052701;28;20341;-71
2022/01/11 00:40:30;;;;;;;98.15;38.10;;;;;;;-2.19;nan;100799.53;5052758;28;20223;-71
2022/01/11 00:42:59;;;;;;;103.03;40.65;;;;;;;-2.28;nan;100788.22;5052610;28;20482;-71
2022/01/11 00:45:26;;;;;;;103.80;38.78;;;;;;;-2.26;nan;100794.06;5034787;28;20036;-71
2022/01/11 00:47:53;;;;;;;99.63;40.05;;;;;;;-2.29;nan;100793.53;5052978;28;20029;-71
2022/01/11 00:50:18;;;;;;;97.07;39.50;;;;;;;-2.30;nan;100795.28;5052797;28;20064;-71
2022/01/11 00:52:44;;;;;;;98.45;38.75;;;;;;;-2.26;nan;100799.22;5052531;28;20434;-71
2022/01/11 00:55:09;;;;;;;105.05;40.42;;;;;;;-2.27;nan;100810.50;5052616;28;20059;-71
2022/01/11 00:57:35;;;;;;;99.97;39.00;;;;;;;-2.30;nan;100800.44;5052854;28;20035;-70
2022/01/11 01:00:00;;;;;;;98.70;39.65;;;;;;;-2.25;nan;100805.19;5052591;28;20027;-71
2022/01/11 01:02:26;;;;;;;91.57;36.95;;;;;;;-2.27;nan;100809.69;5052764;28;20040;-70
2022/01/11 01:04:51;;;;;;;97.88;38.53;;;;;;;-2.23;nan;100824.75;5052389;28;20037;-71
2022/01/11 01:07:17;;;;;;;98.82;39.20;;;;;;;-2.30;nan;100804.78;5052132;28;20178;-72
2022/01/11 01:09:58;;;;;;;101.55;38.05;;;;;;;-2.26;nan;100804.38;5034472;28;20029;-71
2022/01/11 01:12:23;;;;;;;94.53;37.38;;;;;;;-2.18;nan;100824.38;5052246;28;20470;-71
2022/01/11 01:14:49;;;;;;;92.30;36.53;;;;;;;-2.23;nan;100821.38;5051059;28;20037;-70
2022/01/11 01:17:14;;;;;;;89.85;36.67;;;;;;;-2.17;nan;100821.66;5052341;28;20041;-70
2022/01/11 01:19:40;;;;;;;87.55;34.25;;;;;;;-2.19;nan;100822.75;5052187;28;20031;-71
2022/01/11 01:22:05;;;;;;;91.47;35.88;;;;;;;-2.18;nan;100822.63;5052336;28;20029;-71
2022/01/11 01:24:31;;;;;;;87.38;35.25;;;;;;;-2.15;nan;100821.53;5052208;28;20060;-71
2022/01/11 01:26:56;;;;;;;85.25;35.38;;;;;;;-2.22;nan;100815.28;5052200;28;20055;-71
2022/01/11 01:29:22;;;;;;;84.80;34.15;;;;;;;-2.42;nan;100781.69;5052175;28;20032;-71
2022/01/11 01:31:47;;;;;;;86.32;36.05;;;;;;;-2.23;nan;100813.63;5034157;28;20033;-70
2022/01/11 01:34:13;;;;;;;78.35;33.85;;;;;;;-2.16;nan;100833.59;5050955;28;20102;-70
2022/01/11 01:36:39;;;;;;;86.03;34.40;;;;;;;-2.20;nan;100829.69;5051999;28;20033;-70
2022/01/11 01:39:05;;;;;;;82.85;34.25;;;;;;;-2.22;nan;100825.59;5051829;28;20116;-71
2022/01/11 01:41:30;;;;;;;90.40;35.42;;;;;;;-2.12;nan;100838.53;5051546;28;20128;-71
2022/01/11 01:43:59;;;;;;;90.15;35.83;;;;;;;-2.20;nan;100827.09;5052230;28;20090;-71
2022/01/11 01:46:25;;;;;;;82.18;34.53;;;;;;;-2.20;nan;100829.69;5051120;28;20040;-71
2022/01/11 01:48:54;;;;;;;82.93;35.40;;;;;;;-2.12;nan;100838.53;5051999;28;20029;-71
2022/01/11 01:51:19;;;;;;;85.50;34.50;;;;;;;-2.19;nan;100831.28;5051845;28;20063;-71
2022/01/11 01:53:48;;;;;;;87.50;35.58;;;;;;;-2.24;nan;100822.31;5033849;28;20269;-72
2022/01/11 01:56:16;;;;;;;91.30;36.33;;;;;;;-2.11;nan;100832.41;5033825;28;20110;-70
2022/01/11 01:58:42;;;;;;;81.70;34.38;;;;;;;-2.15;nan;100837.84;5051815;28;20079;-72
2022/01/11 02:01:08;;;;;;;86.00;36.33;;;;;;;-2.04;nan;100851.56;5052000;28;20033;-71
2022/01/11 02:03:40;;;;;;;88.32;36.35;;;;;;;-2.07;nan;100833.78;5033729;28;20044;-71
2022/01/11 02:06:14;;;;;;;90.53;37.05;;;;;;;-2.04;nan;100852.38;5051844;28;20479;-72
2022/01/11 02:08:42;;;;;;;92.55;35.47;;;;;;;-2.05;nan;100844.78;5051582;28;20487;-71
2022/01/11 02:11:08;;;;;;;86.75;35.33;;;;;;;-2.03;nan;100858.38;5033614;28;20041;-72
2022/01/11 02:13:34;;;;;;;83.50;34.50;;;;;;;-2.17;nan;100834.56;5051859;28;20037;-70
2022/01/11 02:15:59;;;;;;;82.85;33.90;;;;;;;-2.22;nan;100825.59;5058053;28;20400;-72
2022/01/11 02:18:26;;;;;;;82.47;34.45;;;;;;;-2.00;nan;100858.09;5051800;28;20031;-71
2022/01/11 02:20:58;;;;;;;85.20;34.25;;;;;;;-1.98;nan;100863.97;5051581;28;20035;-71
2022/01/11 02:23:25;;;;;;;82.93;33.22;;;;;;;-1.97;nan;100856.06;5051684;28;20040;-71
2022/01/11 02:25:51;;;;;;;70.72;31.00;;;;;;;-1.98;nan;100854.44;5033549;28;20518;-71
2022/01/11 02:28:20;;;;;;;76.88;29.95;;;;;;;-2.03;nan;100855.81;5051486;28;20033;-72
2022/01/11 02:30:46;;;;;;;72.78;29.92;;;;;;;-2.10;nan;100850.34;5051708;28;20029;-71
2022/01/11 02:33:33;;;;;;;63.22;26.95;;;;;;;-1.97;nan;100866.38;5033412;28;20116;-72
2022/01/11 02:35:59;;;;;;;59.70;24.27;;;;;;;-2.01;nan;100859.88;5050835;28;20064;-72
2022/01/11 02:38:24;;;;;;;57.85;24.23;;;;;;;-1.94;nan;100873.06;5051241;28;20029;-71
2022/01/11 02:40:50;;;;;;;58.75;23.08;;;;;;;-1.96;nan;100874.97;5033264;28;20144;-71
2022/01/11 02:43:17;;;;;;;44.65;18.77;;;;;;;-1.94;nan;100880.78;5051438;28;20476;-71
2022/01/11 02:45:43;;;;;;;44.55;20.05;;;;;;;-1.94;nan;100879.06;5051532;28;20025;-71
2022/01/11 02:48:08;;;;;;;51.33;20.90;;;;;;;-1.90;nan;100873.63;5051447;28;20502;-71
2022/01/11 02:50:34;;;;;;;47.45;19.52;;;;;;;-1.63;nan;100886.69;5051679;28;20032;-70
2022/01/11 02:53:00;;;;;;;44.40;18.58;;;;;;;-1.68;nan;100881.13;5051088;28;20513;-69
2022/01/11 02:55:26;;;;;;;41.20;16.75;;;;;;;-1.79;nan;100879.50;5033488;28;20044;-71
2022/01/11 02:57:51;;;;;;;44.72;18.25;;;;;;;-1.83;nan;100885.03;5053283;28;20025;-71
2022/01/11 03:00:20;;;;;;;44.65;18.23;;;;;;;-1.83;nan;100890.22;5055022;28;20044;-72
2022/01/11 03:02:46;;;;;;;39.17;17.17;;;;;;;-1.96;nan;100878.38;5036685;28;20024;-72
2022/01/11 03:05:13;;;;;;;38.80;16.65;;;;;;;-1.87;nan;100891.41;5054958;28;20033;-71
2022/01/11 03:07:40;;;;;;;43.88;17.73;;;;;;;-1.89;nan;100894.16;5054268;28;20440;-71
2022/01/11 03:10:17;;;;;;;39.97;15.45;;;;;;;-1.94;nan;100878.22;5054905;28;20036;-72
2022/01/11 03:12:43;;;;;;;35.45;14.95;;;;;;;-1.99;nan;100875.22;5039335;28;20115;-70
2022/01/11 03:15:09;;;;;;;36.72;15.70;;;;;;;-1.91;nan;100890.88;5054429;28;20380;-71
2022/01/11 03:17:35;;;;;;;39.30;15.32;;;;;;;-1.96;nan;100898.19;5048292;28;20482;-71
2022/01/11 03:20:00;;;;;;;32.70;15.25;;;;;;;-1.99;nan;100888.97;5054559;28;20036;-71
2022/01/11 03:22:26;;;;;;;35.72;15.35;;;;;;;-1.95;nan;100892.88;5054530;28;20036;-71
2022/01/11 03:24:51;;;;;;;34.25;14.40;;;;;;;-1.99;nan;100888.13;5036204;28;20033;-70
2022/01/11 03:27:16;;;;;;;32.92;14.75;;;;;;;-1.96;nan;100895.63;5054446;28;20033;-71
2022/01/11 03:29:42;;;;;;;35.83;14.82;;;;;;;-2.02;nan;100896.94;5054680;28;20033;-71
2022/01/11 03:32:08;;;;;;;33.85;13.88;;;;;;;-1.97;nan;100902.53;5036524;28;20033;-71
2022/01/11 03:34:34;;;;;;;34.28;13.68;;;;;;;-2.00;nan;100899.41;5054385;28;20036;-71
2022/01/11 03:37:00;;;;;;;29.42;12.10;;;;;;;-2.01;nan;100901.16;5053708;28;20035;-71
2022/01/11 03:39:26;;;;;;;34.97;13.10;;;;;;;-1.98;nan;100900.09;5054104;28;20033;-70
2022/01/11 03:41:52;;;;;;;33.47;13.15;;;;;;;-1.99;nan;100898.44;5054366;28;20033;-71
2022/01/11 03:44:17;;;;;;;28.92;10.77;;;;;;;-2.02;nan;100898.72;5054167;28;20036;-71
2022/01/11 03:46:43;;;;;;;29.55;12.75;;;;;;;-2.16;nan;100892.13;5053993;28;20135;-71
2022/01/11 03:49:08;;;;;;;28.35;12.13;;;;;;;-2.08;nan;100912.97;5053648;28;20423;-70
2022/01/11 03:51:37;;;;;;;30.33;12.40;;;;;;;-2.13;nan;100899.63;5053850;28;20026;-70
2022/01/11 03:54:09;;;;;;;30.58;13.10;;;;;;;-2.17;nan;100895.66;5053762;28;20040;-71
2022/01/11 03:56:35;;;;;;;31.52;12.90;;;;;;;-2.11;nan;100913.19;5054174;28;20025;-71
2022/01/11 03:59:06;;;;;;;27.65;12.70;;;;;;;-2.18;nan;100896.59;5035882;28;20044;-71
2022/01/11 04:01:33;;;;;;;30.40;12.55;;;;;;;-2.24;nan;100894.56;5036536;28;20668;-71
2022/01/11 04:03:58;;;;;;;29.90;12.68;;;;;;;-2.24;nan;100904.88;5053593;28;20120;-71
2022/01/11 04:06:25;;;;;;;34.00;13.23;;;;;;;-2.12;nan;100919.31;5035540;28;20128;-70
2022/01/11 04:08:52;;;;;;;29.83;12.27;;;;;;;-2.18;nan;100909.50;5052465;28;20056;-71
2022/01/11 04:11:17;;;;;;;29.42;12.45;;;;;;;-2.12;nan;100921.09;5053659;28;20093;-71
2022/01/11 04:13:43;;;;;;;31.35;12.50;;;;;;;-2.29;nan;100894.94;5053566;28;20471;-71
2022/01/11 04:16:09;;;;;;;31.20;12.48;;;;;;;-2.40;nan;100882.13;5045347;28;20028;-70
2022/01/11 04:18:35;;;;;;;36.55;14.52;;;;;;;-2.23;nan;100906.50;5053638;28;20028;-71
2022/01/11 04:21:01;;;;;;;30.42;12.43;;;;;;;-2.19;nan;100919.00;5053217;28;20033;-71
2022/01/11 04:23:27;;;;;;;34.40;13.40;;;;;;;-2.19;nan;100919.00;5053567;28;20047;-71
2022/01/11 04:25:53;;;;;;;31.52;12.43;;;;;;;-2.23;nan;100925.38;5053419;28;20040;-71
2022/01/11 04:28:19;;;;;;;28.92;11.80;;;;;;;-2.21;nan;100928.63;5035123;28;20048;-70
2022/01/11 04:30:44;;;;;;;30.30;12.65;;;;;;;-2.30;nan;100915.69;5053300;28;20027;-70
2022/01/11 04:33:10;;;;;;;25.15;11.45;;;;;;;-2.21;nan;100928.63;5053133;28;20037;-71
2022/01/11 04:35:35;;;;;;;30.08;12.43;;;;;;;-2.22;nan;100933.94;5035081;28;20037;-71
2022/01/11 04:38:01;;;;;;;26.08;11.38;;;;;;;-2.30;nan;100918.28;5052881;28;20021;-71
2022/01/11 04:40:27;;;;;;;32.28;12.27;;;;;;;-2.21;nan;100938.13;5050752;28;20049;-70
2022/01/11 04:42:52;;;;;;;30.83;12.32;;;;;;;-2.30;nan;100934.56;5033445;28;20057;-70
2022/01/11 04:45:17;;;;;;;28.42;11.60;;;;;;;-2.26;nan;100937.72;5036568;28;20053;-71
2022/01/11 04:47:45;;;;;;;29.00;11.13;;;;;;;-2.22;nan;100954.56;5032553;28;20026;-71
2022/01/11 04:50:11;;;;;;;31.38;12.02;;;;;;;-2.26;nan;100948.03;5034404;28;20037;-72
2022/01/11 04:52:37;;;;;;;29.90;11.68;;;;;;;-2.23;nan;100952.94;5015272;28;20412;-70
2022/01/11 04:55:04;;;;;;;29.50;12.80;;;;;;;-2.24;nan;100959.03;5047505;28;20112;-71
2022/01/11 04:57:29;;;;;;;30.85;11.80;;;;;;;-2.39;nan;100954.22;5052495;28;20115;-70
2022/01/11 04:59:55;;;;;;;28.90;11.80;;;;;;;-2.29;nan;100964.59;5052696;28;20111;-71
2022/01/11 05:02:20;;;;;;;30.33;11.75;;;;;;;-2.30;nan;100968.09;5052734;28;20071;-70
2022/01/11 05:04:46;;;;;;;28.88;12.20;;;;;;;-2.32;nan;100962.25;5052513;28;20087;-70
2022/01/11 05:07:11;;;;;;;32.35;13.15;;;;;;;-2.30;nan;100967.28;5052082;28;20037;-70
2022/01/11 05:09:36;;;;;;;31.25;13.20;;;;;;;-2.31;nan;100961.31;5052523;28;20033;-70
2022/01/11 05:12:02;;;;;;;33.80;12.52;;;;;;;-2.25;nan;100970.28;5034755;28;20063;-70
2022/01/11 05:14:27;;;;;;;36.58;14.38;;;;;;;-2.27;nan;100969.63;5051568;28;20056;-70
2022/01/11 05:16:53;;;;;;;29.90;12.45;;;;;;;-2.31;nan;100961.31;5025921;28;20053;-70
2022/01/11 05:19:18;;;;;;;33.75;13.85;;;;;;;-2.35;nan;100970.25;5033635;28;20107;-70
2022/01/11 05:21:44;;;;;;;31.98;12.68;;;;;;;-2.27;nan;100973.03;5052607;28;20501;-69
2022/01/11 05:24:10;;;;;;;33.15;12.32;;;;;;;-2.19;nan;100985.28;5034851;28;20331;-70
2022/01/11 05:26:36;;;;;;;31.08;13.25;;;;;;;-2.24;nan;100990.00;5052670;28;20025;-70
2022/01/11 05:29:02;;;;;;;29.85;11.98;;;;;;;-2.27;nan;100990.25;5052798;28;20040;-72
2022/01/11 05:31:28;;;;;;;32.33;13.02;;;;;;;-2.28;nan;100996.34;5052924;28;20078;-70
2022/01/11 05:33:53;;;;;;;27.40;11.88;;;;;;;-2.26;nan;100997.84;5052689;28;20025;-71
2022/01/11 05:36:18;;;;;;;28.13;12.00;;;;;;;-2.31;nan;100997.41;5053340;28;20430;-73
2022/01/11 05:38:44;;;;;;;28.50;12.07;;;;;;;-2.31;nan;101002.56;5034834;28;20029;-74
2022/01/11 05:41:10;;;;;;;31.83;11.98;;;;;;;-2.32;nan;101000.13;5052765;28;20102;-72
2022/01/11 05:43:37;;;;;;;31.02;12.02;;;;;;;-2.28;nan;101002.31;5053434;28;20032;-72
2022/01/11 05:46:03;;;;;;;29.98;11.90;;;;;;;-2.32;nan;101007.84;5035094;28;20378;-73
2022/01/11 05:48:32;;;;;;;30.45;12.15;;;;;;;-2.24;nan;101021.78;5053250;28;20036;-73
2022/01/11 05:50:58;;;;;;;32.10;12.57;;;;;;;-2.26;nan;101022.84;5052736;28;20033;-74
2022/01/11 05:53:23;;;;;;;31.80;12.57;;;;;;;-2.25;nan;101017.56;5053566;28;20039;-73
2022/01/11 05:55:49;;;;;;;27.15;11.43;;;;;;;-2.26;nan;101030.56;5052448;28;20482;-73
2022/01/11 05:58:15;;;;;;;29.20;12.40;;;;;;;-2.31;nan;101019.81;5052926;28;20064;-73
2022/01/11 06:00:40;;;;;;;30.85;12.32;;;;;;;-2.22;nan;101034.56;5034926;28;20041;-73
2022/01/11 06:03:06;;;;;;;30.50;12.23;;;;;;;-2.23;nan;101033.72;5035119;28;20037;-73
2022/01/11 06:05:35;;;;;;;32.70;12.80;;;;;;;-2.21;nan;101039.56;5035001;28;20025;-72
2022/01/11 06:08:00;;;;;;;28.48;11.98;;;;;;;-2.31;nan;101023.22;5034675;28;20441;-75
2022/01/11 06:10:26;;;;;;;26.52;11.50;;;;;;;-2.16;nan;101052.09;5052441;28;20037;-71
2022/01/11 06:12:51;;;;;;;30.88;12.68;;;;;;;-2.16;nan;101052.91;5049023;28;20040;-74
2022/01/11 06:15:17;;;;;;;34.15;12.13;;;;;;;-2.15;nan;101048.59;5035644;28;20102;-74
2022/01/11 06:17:42;;;;;;;32.83;12.80;;;;;;;-2.24;nan;101047.56;5053189;28;20075;-76
2022/01/11 06:20:08;;;;;;;27.83;11.45;;;;;;;-2.26;nan;101051.22;5026983;28;20033;-74
2022/01/11 06:22:34;;;;;;;27.33;11.52;;;;;;;-2.21;nan;101059.41;5032459;28;20129;-74
2022/01/11 06:25:03;;;;;;;30.02;11.55;;;;;;;-2.21;nan;101060.19;5045332;28;20061;-72
2022/01/11 06:27:29;;;;;;;23.35;9.32;;;;;;;-2.18;nan;101059.97;5035224;28;20422;-73
2022/01/11 06:29:54;;;;;;;27.67;11.80;;;;;;;-2.19;nan;101057.50;5052924;28;20025;-73
2022/01/11 06:32:20;;;;;;;31.55;12.38;;;;;;;-2.16;nan;101072.72;5054414;28;20406;-73
2022/01/11 06:34:46;;;;;;;29.05;11.82;;;;;;;-2.22;nan;101066.31;5038186;28;20068;-74
2022/01/11 06:37:12;;;;;;;31.45;12.73;;;;;;;-2.16;nan;101076.13;5038204;28;20029;-73
2022/01/11 06:39:38;;;;;;;29.35;11.63;;;;;;;-2.24;nan;101064.81;5051050;28;20045;-75
2022/01/11 06:42:04;;;;;;;26.38;11.50;;;;;;;-2.10;nan;101087.72;5023138;28;20091;-75
2022/01/11 06:44:31;;;;;;;33.30;12.77;;;;;;;-2.09;nan;101091.94;5018654;28;20029;-75
2022/01/11 06:46:56;;;;;;;30.77;12.60;;;;;;;-2.18;nan;101083.19;5045607;28;20033;-75
2022/01/11 06:49:22;;;;;;;31.77;11.98;;;;;;;-2.12;nan;101084.44;5037448;28;20034;-75
2022/01/11 06:51:47;;;;;;;26.15;11.35;;;;;;;-2.08;nan;101098.75;5040441;28;20044;-75
2022/01/11 06:54:12;;;;;;;25.58;10.38;;;;;;;-2.12;nan;101094.75;5040187;28;20031;-73
2022/01/11 06:56:38;;;;;;;28.45;11.38;;;;;;;-2.07;nan;101105.53;5027436;28;20174;-74
2022/01/11 06:59:03;;;;;;;26.27;10.73;;;;;;;-2.08;nan;101111.66;5038295;28;20111;-74
2022/01/11 07:01:29;;;;;;;27.67;11.75;;;;;;;-2.08;nan;101114.22;5019142;28;20034;-73
2022/01/11 07:03:55;;;;;;;29.25;11.60;;;;;;;-2.11;nan;101109.28;5043877;28;20033;-74
2022/01/11 07:06:20;;;;;;;27.55;10.68;;;;;;;-1.98;nan;101122.84;5038442;28;20399;-72
2022/01/11 07:08:46;;;;;;;28.95;11.27;;;;;;;-2.07;nan;101110.69;5038292;28;20026;-74
2022/01/11 07:11:12;;;;;;;28.80;11.30;;;;;;;-2.11;nan;101114.44;5021767;28;20033;-73
2022/01/11 07:13:38;;;;;;;26.40;11.48;;;;;;;-2.00;nan;101129.06;5039723;28;20067;-74
2022/01/11 07:16:03;;;;;;;27.38;10.95;;;;;;;-2.08;nan;101118.53;5043881;28;20495;-74
2022/01/11 07:18:29;;;;;;;27.02;11.35;;;;;;;-2.10;nan;101115.28;5034492;28;20063;-73
2022/01/11 07:20:54;;;;;;;28.70;11.68;;;;;;;-2.02;nan;101134.34;5043889;28;20033;-74
2022/01/11 07:23:19;;;;;;;33.38;12.82;;;;;;;-1.98;nan;101137.53;5035896;28;20220;-74
2022/01/11 07:25:45;;;;;;;36.00;14.02;;;;;;;-2.05;nan;101123.47;5033196;28;20056;-75
2022/01/11 07:28:14;;;;;;;34.95;13.77;;;;;;;-1.94;nan;101142.31;5039103;28;20040;-75
2022/01/11 07:30:39;;;;;;;31.00;13.07;;;;;;;-1.97;nan;101137.38;5054878;28;20033;-74
2022/01/11 07:33:05;;;;;;;28.23;12.30;;;;;;;-1.92;nan;101139.59;5054247;28;20083;-74
2022/01/11 07:35:30;;;;;;;37.10;13.75;;;;;;;-1.97;nan;101131.41;5054405;28;20036;-74
2022/01/11 07:37:56;;;;;;;39.17;14.80;;;;;;;-1.93;nan;101141.34;5054003;28;20112;-74
2022/01/11 07:40:21;;;;;;;36.25;14.27;;;;;;;-1.97;nan;101139.13;5054044;28;20045;-73
2022/01/11 07:42:48;;;;;;;38.78;14.35;;;;;;;-1.90;nan;101147.22;5017496;28;20596;-72
2022/01/11 07:45:14;;;;;;;39.67;15.27;;;;;;;-1.85;nan;101152.81;5015795;28;20029;-73
2022/01/11 07:47:39;;;;;;;39.05;14.48;;;;;;;-1.96;nan;101145.97;5033813;28;20036;-73
2022/01/11 07:50:06;;;;;;;34.67;13.27;;;;;;;-1.86;nan;101159.75;5042999;28;20119;-72
2022/01/11 07:52:32;;;;;;;35.80;14.80;;;;;;;-1.86;nan;101164.91;5054055;28;20475;-73
2022/01/11 07:54:57;;;;;;;34.33;12.60;;;;;;;-1.89;nan;101146.25;5053899;28;20171;-73
2022/01/11 07:57:23;;;;;;;32.80;12.40;;;;;;;-1.86;nan;101164.09;5035481;28;20033;-73
2022/01/11 07:59:48;;;;;;;30.10;12.25;;;;;;;-1.91;nan;101153.34;5053963;28;20135;-74
2022/01/11 08:02:14;;;;;;;34.05;12.98;;;;;;;-1.94;nan;101162.97;5035262;28;20108;-74
2022/01/11 08:04:39;;;;;;;28.38;11.18;;;;;;;-1.84;nan;101165.59;5039920;28;20095;-72
2022/01/11 08:07:05;;;;;;;33.70;13.05;;;;;;;-1.75;nan;101174.34;5042222;28;20543;-70
2022/01/11 08:09:30;;;;;;;30.35;11.85;;;;;;;-1.79;nan;101173.78;5053801;28;20037;-72
2022/01/11 08:11:58;;;;;;;30.27;10.70;;;;;;;-1.74;nan;101179.41;5053599;28;20037;-71
2022/01/11 08:14:24;;;;;;;33.15;12.50;;;;;;;-1.85;nan;101173.47;5033299;28;20044;-71
2022/01/11 08:16:49;;;;;;;26.55;11.68;;;;;;;-1.78;nan;101177.19;5047158;28;20033;-71
2022/01/11 08:19:16;;;;;;;32.47;12.60;;;;;;;-1.79;nan;101172.97;5053311;28;20057;-71
2022/01/11 08:21:42;;;;;;;31.00;12.05;;;;;;;-1.80;nan;101185.03;5033739;28;20064;-71
2022/01/11 08:24:07;;;;;;;29.05;11.80;;;;;;;-1.72;nan;101185.25;5036317;28;20056;-72
2022/01/11 08:26:33;;;;;;;28.67;11.40;;;;;;;-1.72;nan;101176.69;5017424;28;20037;-72
2022/01/11 08:28:58;;;;;;;28.20;11.60;;;;;;;-1.77;nan;101171.09;5043196;28;20082;-71
2022/01/11 08:31:24;;;;;;;31.42;12.48;;;;;;;-1.74;nan;101184.56;5053406;28;20033;-71
2022/01/11 08:33:50;;;;;;;34.95;13.15;;;;;;;-1.78;nan;101177.19;5053004;28;20148;-72
2022/01/11 08:36:15;;;;;;;41.28;15.73;;;;;;;-1.81;nan;101180.84;5053148;28;20131;-71
2022/01/11 08:38:41;;;;;;;39.53;13.70;;;;;;;-1.80;nan;101184.22;5052892;28;20040;-72
2022/01/11 08:41:07;;;;;;;41.85;15.07;;;;;;;-1.70;nan;101192.84;5052564;28;20052;-72
2022/01/11 08:43:33;;;;;;;34.58;13.23;;;;;;;-1.71;nan;101192.03;5034591;28;20071;-73
2022/01/11 08:45:58;;;;;;;31.95;11.93;;;;;;;-1.76;nan;101183.03;5035185;28;20060;-72
2022/01/11 08:48:24;;;;;;;31.50;13.05;;;;;;;-1.69;nan;101204.84;5034711;28;20044;-71
2022/01/11 08:50:53;;;;;;;42.25;15.02;;;;;;;-1.74;nan;101188.91;5052782;28;20108;-72
2022/01/11 08:53:20;;;;;;;44.38;16.05;;;;;;;-1.72;nan;101194.78;5034938;28;20382;-72
2022/01/11 08:55:50;;;;;;;33.40;13.48;;;;;;;-1.71;nan;101199.78;5034496;28;20065;-71
2022/01/11 08:58:16;;;;;;;34.47;14.40;;;;;;;-1.77;nan;101191.75;5052138;28;20048;-72
2022/01/11 09:00:41;;;;;;;36.63;13.55;;;;;;;-1.70;nan;101195.44;5034699;28;20032;-71
2022/01/11 09:03:07;;;;;;;36.22;14.60;;;;;;;-1.71;nan;101191.22;5052531;28;20044;-72
2022/01/11 09:05:33;;;;;;;39.65;15.75;;;;;;;-1.63;nan;101201.75;5052960;28;20477;-72
2022/01/11 09:07:58;;;;;;;37.78;15.90;;;;;;;-1.59;nan;101215.25;5052297;28;20033;-73
2022/01/11 09:10:23;;;;;;;35.88;14.77;;;;;;;-1.84;nan;101170.78;5052769;28;20082;-72
2022/01/11 09:12:50;;;;;;;42.38;16.23;;;;;;;-1.64;nan;101196.72;5037617;28;20044;-72
2022/01/11 09:15:16;;;;;;;40.35;14.90;;;;;;;-1.55;nan;101206.31;5050895;28;20043;-72
2022/01/11 09:17:43;;;;;;;30.60;12.90;;;;;;;-1.53;nan;101210.41;5052407;28;20027;-73
2022/01/11 09:20:11;;;;;;;36.85;13.95;;;;;;;-1.41;nan;101216.31;5052172;28;20040;-72
2022/01/11 09:22:36;;;;;;;35.22;14.75;;;;;;;-1.41;nan;101210.31;5052399;28;20127;-74
2022/01/11 09:25:03;;;;;;;40.08;15.55;;;;;;;-1.35;nan;101209.81;5052178;28;20167;-73
2022/01/11 09:27:28;;;;;;;38.90;14.40;;;;;;;-1.41;nan;101207.72;5037694;28;20056;-72
2022/01/11 09:29:54;;;;;;;42.85;15.85;;;;;;;-1.46;nan;101202.13;5034326;28;20509;-74
2022/01/11 09:32:19;;;;;;;33.33;13.77;;;;;;;-1.44;nan;101208.78;5032299;28;20034;-73
2022/01/11 09:34:44;;;;;;;34.80;14.23;;;;;;;-1.57;nan;101187.53;5042638;28;20036;-73
2022/01/11 09:37:10;;;;;;;34.33;13.52;;;;;;;-1.49;nan;101205.78;5036799;28;20052;-74
2022/01/11 09:39:38;;;;;;;34.92;13.85;;;;;;;-1.54;nan;101201.00;5030561;28;20045;-74
2022/01/11 09:42:05;;;;;;;36.53;15.05;;;;;;;-1.61;nan;101192.09;5022643;28;20037;-73
2022/01/11 09:44:32;;;;;;;36.03;14.35;;;;;;;-1.57;nan;101197.84;5052334;28;20051;-73
2022/01/11 09:46:58;;;;;;;44.10;16.30;;;;;;;-1.48;nan;101206.59;5033616;28;20041;-73
2022/01/11 09:49:24;;;;;;;41.03;15.48;;;;;;;-1.47;nan;101206.47;5050533;28;20025;-73
2022/01/11 09:51:51;;;;;;;36.90;13.55;;;;;;;-1.57;nan;101195.28;5052040;28;20033;-74
2022/01/11 09:54:19;;;;;;;40.92;15.73;;;;;;;-1.48;nan;101214.34;5051819;28;20470;-73
2022/01/11 09:56:45;;;;;;;42.65;15.70;;;;;;;-1.51;nan;101212.81;5051524;28;20080;-73
2022/01/11 09:59:10;;;;;;;38.90;16.23;;;;;;;-1.54;nan;101206.16;5033542;28;20048;-74
2022/01/11 10:01:36;;;;;;;38.17;15.75;;;;;;;-1.59;nan;101197.97;5051975;28;20033;-73
2022/01/11 10:04:07;;;;;;;46.50;18.23;;;;;;;-1.51;nan;101207.66;5051894;28;20132;-73
2022/01/11 10:06:35;;;;;;;42.30;17.48;;;;;;;-1.54;nan;101195.81;5052185;28;20124;-73
2022/01/11 10:09:09;;;;;;;40.40;16.27;;;;;;;-1.45;nan;101201.19;5055502;28;20033;-73
2022/01/11 10:11:41;;;;;;;40.65;15.65;;;;;;;-1.38;nan;101215.25;5037603;28;20033;-73
2022/01/11 10:14:20;;;;;;;42.63;16.25;;;;;;;-1.45;nan;101208.94;5055807;28;20032;-73
2022/01/11 10:16:46;;;;;;;36.75;15.27;;;;;;;-1.40;nan;101220.53;5055576;28;20507;-73
2022/01/11 10:19:23;;;;;;;49.63;17.95;;;;;;;-1.38;nan;101213.47;5055743;28;20028;-73
2022/01/11 10:21:50;;;;;;;64.88;21.60;;;;;;;-1.43;nan;101200.13;5035955;28;20594;-72
2022/01/11 10:24:32;;;;;;;42.97;16.98;;;;;;;-1.39;nan;101213.59;5042223;28;20097;-73
2022/01/11 10:27:01;;;;;;;36.90;13.68;;;;;;;-1.41;nan;101210.31;5055387;28;20061;-72
2022/01/11 10:29:32;;;;;;;38.95;15.43;;;;;;;-1.56;nan;101195.13;5055510;28;20554;-73
2022/01/11 10:32:00;;;;;;;41.60;16.05;;;;;;;-1.50;nan;101207.56;5055676;28;20475;-72
2022/01/11 10:34:35;;;;;;;41.58;15.48;;;;;;;-1.53;nan;101205.22;5055353;28;20040;-73
2022/01/11 10:37:03;;;;;;;31.65;13.35;;;;;;;-1.51;nan;101207.66;5055154;28;20029;-72
2022/01/11 10:39:38;;;;;;;35.80;14.27;;;;;;;-1.56;nan;101207.22;5055284;28;20025;-73
2022/01/11 10:42:05;;;;;;;34.72;14.45;;;;;;;-1.59;nan;101216.03;5055415;28;20029;-73
2022/01/11 10:44:43;;;;;;;32.75;13.55;;;;;;;-1.55;nan;101224.38;5055506;28;20044;-73
2022/01/11 10:47:09;;;;;;;28.20;13.23;;;;;;;-1.55;nan;101222.59;5036907;28;20082;-73
2022/01/11 10:49:35;;;;;;;33.13;14.00;;;;;;;-1.69;nan;101202.25;5042195;28;20037;-72
2022/01/11 10:52:20;;;;;;;33.53;13.75;;;;;;;-1.52;nan;101226.69;5055355;28;20116;-73
2022/01/11 10:54:47;;;;;;;35.17;13.27;;;;;;;-1.58;nan;101215.13;5036867;28;20119;-73
2022/01/11 10:57:17;;;;;;;43.00;16.35;;;;;;;-1.52;nan;101226.69;5055131;28;20029;-72
2022/01/11 10:59:42;;;;;;;37.03;15.55;;;;;;;-1.55;nan;101221.78;5054996;28;20112;-72
2022/01/11 11:02:25;;;;;;;41.50;15.82;;;;;;;-1.47;nan;101234.06;5055034;28;20120;-74
2022/01/11 11:04:50;;;;;;;37.72;14.57;;;;;;;-1.61;nan;101215.34;5036801;28;20120;-73
2022/01/11 11:07:18;;;;;;;36.20;14.27;;;;;;;-1.57;nan;101219.31;5041076;28;20060;-72
2022/01/11 11:09:48;;;;;;;37.97;15.07;;;;;;;-1.59;nan;101228.16;5034423;28;20041;-71
2022/01/11 11:12:18;;;;;;;33.60;12.63;;;;;;;-1.58;nan;101225.44;5038071;28;20486;-72
2022/01/11 11:14:56;;;;;;;29.15;13.38;;;;;;;-1.60;nan;101219.59;5016835;28;20033;-71
2022/01/11 11:17:38;;;;;;;37.22;14.07;;;;;;;-1.45;nan;101229.59;5045808;28;20039;-73
2022/01/11 11:20:07;;;;;;;43.70;16.27;;;;;;;-1.29;nan;101222.25;5039348;28;20032;-73
2022/01/11 11:22:33;;;;;;;37.95;15.15;;;;;;;-1.16;nan;101234.94;5034519;28;20030;-72
2022/01/11 11:24:59;;;;;;;37.13;15.57;;;;;;;-1.12;nan;101215.66;5045266;28;20112;-73